Time;durP1;ratioP1;P1;durP2;ratioP2;P2;SDS_P1;SDS_P2;PMS_P1;PMS_P2;Temp;Humidity;BMP_temperature;BMP_pressure;BME280_temperature;BME280_humidity;BME280_pressure;Samples;Min_cycle;Max_cycle;Signal;HPM_P1;HPM_P2
2023/08/30 00:02:05;;;;;;;13.80;12.13;;;;;;;22.93;87.76;93947.78;5056178;28;20632;-86
2023/08/30 00:04:32;;;;;;;21.60;13.20;;;;;;;22.93;88.24;93940.56;5078072;28;20535;-86
2023/08/30 00:07:00;;;;;;;19.23;13.10;;;;;;;22.99;87.70;93946.84;5074223;28;20447;-87
2023/08/30 00:09:27;;;;;;;14.47;13.07;;;;;;;23.04;87.89;93942.44;5072718;28;20776;-85
2023/08/30 00:11:54;;;;;;;15.37;13.67;;;;;;;23.02;87.90;93941.03;5022740;28;20452;-85
2023/08/30 00:14:20;;;;;;;14.27;12.77;;;;;;;23.04;88.13;93933.59;5022321;28;20848;-85
2023/08/30 00:16:47;;;;;;;14.93;13.03;;;;;;;23.02;87.93;93925.81;5072599;28;20801;-86
2023/08/30 00:19:14;;;;;;;23.57;13.23;;;;;;;22.94;88.10;93928.81;5072286;28;20456;-85
2023/08/30 00:21:42;;;;;;;22.30;13.83;;;;;;;22.97;89.08;93930.22;5073132;28;20484;-85
2023/08/30 00:24:11;;;;;;;14.90;12.33;;;;;;;22.94;89.03;93944.06;5074326;28;20451;-85
2023/08/30 00:26:37;;;;;;;23.83;12.33;;;;;;;22.87;89.05;93938.81;5074099;28;20451;-86
2023/08/30 00:29:04;;;;;;;14.33;12.93;;;;;;;22.78;88.98;93930.25;5074466;28;20445;-86
2023/08/30 00:31:31;;;;;;;17.80;13.40;;;;;;;22.76;89.30;93931.53;5074577;28;21086;-85
2023/08/30 00:33:58;;;;;;;17.40;12.20;;;;;;;22.71;89.35;93921.50;5074538;28;20429;-85
2023/08/30 00:36:25;;;;;;;22.37;14.50;;;;;;;22.70;90.15;93943.94;5039120;28;20438;-85
2023/08/30 00:38:52;;;;;;;13.23;11.93;;;;;;;22.59;90.33;93950.09;5074189;28;20440;-85
2023/08/30 00:41:20;;;;;;;16.80;13.07;;;;;;;22.52;90.67;93960.84;5073862;28;20483;-85
2023/08/30 00:43:47;;;;;;;15.63;13.53;;;;;;;22.47;90.95;93955.38;5055545;28;20449;-86
2023/08/30 00:46:15;;;;;;;16.57;13.10;;;;;;;22.46;91.64;93947.56;5073822;28;20438;-86
2023/08/30 00:48:42;;;;;;;16.90;13.63;;;;;;;22.44;91.61;93950.47;5073989;28;20530;-85
2023/08/30 00:51:09;;;;;;;16.63;13.30;;;;;;;22.48;91.42;93945.50;5073761;28;20442;-86
2023/08/30 00:53:37;;;;;;;21.97;13.37;;;;;;;22.54;91.69;93950.75;5073320;28;20443;-86
2023/08/30 00:56:05;;;;;;;18.20;12.00;;;;;;;22.51;91.77;93948.53;5073868;28;20938;-86
2023/08/30 00:58:33;;;;;;;15.50;13.90;;;;;;;22.52;91.96;93947.47;5073913;28;20455;-84
2023/08/30 01:01:00;;;;;;;16.07;12.47;;;;;;;22.49;92.75;93950.59;5073490;28;20442;-85
2023/08/30 01:03:27;;;;;;;16.50;12.90;;;;;;;22.46;93.13;93955.59;5073979;28;20464;-86
2023/08/30 01:05:54;;;;;;;18.83;12.80;;;;;;;22.46;93.08;93969.78;5073427;28;20437;-86
2023/08/30 01:08:21;;;;;;;17.80;12.50;;;;;;;22.44;93.07;93979.06;5073571;28;20442;-86
2023/08/30 01:10:59;;;;;;;21.80;12.30;;;;;;;22.32;93.31;93979.03;5073973;28;20470;-85
2023/08/30 01:13:27;;;;;;;14.40;11.93;;;;;;;22.23;93.39;93975.81;5073820;28;20438;-85
2023/08/30 01:15:57;;;;;;;16.20;12.47;;;;;;;22.14;93.49;93979.84;5073671;28;20446;-85
2023/08/30 01:18:27;;;;;;;13.00;11.70;;;;;;;22.15;93.69;93986.81;5073465;28;20812;-86
2023/08/30 01:20:56;;;;;;;16.80;12.80;;;;;;;22.20;93.74;93986.13;5073624;28;20445;-85
2023/08/30 01:23:35;;;;;;;12.97;11.60;;;;;;;22.19;93.58;93979.97;5073138;28;20488;-85
2023/08/30 01:26:09;;;;;;;14.77;13.17;;;;;;;22.07;94.24;93955.06;5073156;28;20903;-85
2023/08/30 01:28:39;;;;;;;20.37;13.40;;;;;;;21.94;95.54;93944.47;5039249;28;20453;-85
2023/08/30 01:31:08;;;;;;;21.60;13.10;;;;;;;21.83;96.12;93945.22;5073154;28;20480;-84
2023/08/30 01:33:36;;;;;;;17.20;14.70;;;;;;;21.77;97.16;93964.81;5074293;28;20797;-86
2023/08/30 01:36:05;;;;;;;15.20;13.03;;;;;;;21.73;99.52;93985.81;5072943;28;20447;-85
2023/08/30 01:38:33;;;;;;;23.60;13.17;;;;;;;21.60;99.89;93996.59;5073489;28;20442;-85
2023/08/30 01:41:01;;;;;;;17.07;12.13;;;;;;;21.41;98.67;94003.75;5073069;28;20813;-84
2023/08/30 01:43:29;;;;;;;20.97;12.77;;;;;;;21.38;99.64;93996.16;5072762;28;20890;-85
2023/08/30 01:45:59;;;;;;;21.80;13.77;;;;;;;21.30;100.00;93978.56;5073013;28;20493;-84
2023/08/30 01:48:29;;;;;;;14.90;11.90;;;;;;;21.24;100.00;93999.97;5073098;28;20988;-84
2023/08/30 01:50:58;;;;;;;20.40;13.23;;;;;;;21.38;100.00;94006.84;5072893;28;20442;-85
2023/08/30 01:53:26;;;;;;;14.07;11.60;;;;;;;21.02;99.18;93984.28;5072757;28;20847;-85
2023/08/30 01:55:53;;;;;;;14.70;11.57;;;;;;;20.69;100.00;93978.38;5072848;28;20456;-84
2023/08/30 01:58:20;;;;;;;16.03;12.50;;;;;;;20.91;100.00;93971.66;5072857;28;20468;-84
2023/08/30 02:00:46;;;;;;;17.23;12.23;;;;;;;21.17;100.00;93970.66;5072650;28;20448;-84
2023/08/30 02:03:15;;;;;;;16.43;12.50;;;;;;;21.43;100.00;93976.84;5072941;28;20497;-85
2023/08/30 02:06:04;;;;;;;18.60;12.00;;;;;;;21.59;100.00;93971.75;5077921;28;20442;-84
2023/08/30 02:08:38;;;;;;;22.30;10.80;;;;;;;21.88;100.00;93985.44;5021693;28;20445;-85
2023/08/30 02:11:12;;;;;;;17.33;11.33;;;;;;;22.08;99.45;93977.25;5073003;28;20448;-84
2023/08/30 02:13:40;;;;;;;16.03;10.43;;;;;;;22.19;97.98;93971.97;5073354;28;20469;-85
2023/08/30 02:16:10;;;;;;;16.60;11.13;;;;;;;22.32;95.83;93978.19;5073596;28;20471;-85
2023/08/30 02:18:38;;;;;;;17.83;11.67;;;;;;;22.40;96.55;93976.03;5072828;28;20448;-85
2023/08/30 02:21:05;;;;;;;15.37;11.27;;;;;;;22.47;95.30;93970.59;5073011;28;20433;-84
2023/08/30 02:23:32;;;;;;;12.97;10.97;;;;;;;22.57;94.59;93962.88;5072532;28;20486;-86
2023/08/30 02:26:00;;;;;;;13.77;10.20;;;;;;;22.55;93.21;93956.91;5072686;28;20451;-84
2023/08/30 02:28:26;;;;;;;12.40;10.23;;;;;;;22.58;93.16;93955.66;5073350;28;20460;-85
2023/08/30 02:30:54;;;;;;;16.87;10.60;;;;;;;22.59;92.30;93960.78;5073091;28;20446;-85
2023/08/30 02:33:23;;;;;;;14.63;10.23;;;;;;;22.63;92.01;93964.63;5073543;28;20495;-85
2023/08/30 02:35:53;;;;;;;18.73;10.67;;;;;;;22.63;91.64;93979.88;5072919;28;20439;-86
2023/08/30 02:38:20;;;;;;;17.60;11.23;;;;;;;22.51;91.78;93971.78;5072927;28;20522;-85
2023/08/30 02:40:47;;;;;;;15.73;9.90;;;;;;;22.47;91.96;93967.91;5037456;28;20984;-86
2023/08/30 02:43:14;;;;;;;14.90;10.63;;;;;;;22.45;92.12;93970.81;5072579;28;20549;-85
2023/08/30 02:45:41;;;;;;;12.17;9.50;;;;;;;22.50;91.36;93973.63;5073156;28;20446;-85
2023/08/30 02:48:08;;;;;;;13.30;9.40;;;;;;;22.47;91.23;93971.41;5072597;28;20444;-85
2023/08/30 02:50:34;;;;;;;10.90;9.67;;;;;;;22.54;91.40;93968.66;5072404;28;20921;-84
2023/08/30 02:53:03;;;;;;;11.07;9.43;;;;;;;22.52;91.00;93963.53;5072585;28;21164;-85
2023/08/30 02:55:31;;;;;;;14.70;9.23;;;;;;;22.48;90.16;93959.66;5037237;28;20499;-86
2023/08/30 02:57:58;;;;;;;12.17;8.90;;;;;;;22.43;90.48;93967.56;5072462;28;21160;-85
2023/08/30 03:00:25;;;;;;;15.33;9.63;;;;;;;22.44;89.96;93966.50;5072555;28;20441;-85
2023/08/30 03:02:52;;;;;;;12.13;8.33;;;;;;;22.44;89.47;93971.88;5072424;28;20485;-85
2023/08/30 03:05:19;;;;;;;10.50;9.23;;;;;;;22.43;89.92;93964.88;5072944;28;20441;-85
2023/08/30 03:07:46;;;;;;;10.20;9.20;;;;;;;22.40;89.94;93959.19;5020684;28;20946;-85
2023/08/30 03:10:14;;;;;;;11.73;9.30;;;;;;;22.35;89.49;93962.53;5072505;28;20443;-85
2023/08/30 03:12:41;;;;;;;13.60;9.20;;;;;;;22.36;90.44;93963.34;5020998;28;20461;-85
2023/08/30 03:15:08;;;;;;;11.50;9.03;;;;;;;23.09;88.28;93968.50;5037631;28;20435;-82
2023/08/30 03:17:36;;;;;;;10.57;8.30;;;;;;;23.42;83.91;93973.38;5023106;28;20439;-82
2023/08/30 03:20:04;;;;;;;12.30;8.93;;;;;;;23.15;84.92;93962.25;5078428;28;20935;-83
2023/08/30 03:22:32;;;;;;;9.43;7.50;;;;;;;22.95;84.88;93972.44;5026864;28;20484;-83
2023/08/30 03:24:59;;;;;;;11.40;8.90;;;;;;;22.79;86.81;93966.66;5078791;28;20457;-82
2023/08/30 03:27:27;;;;;;;10.53;9.13;;;;;;;22.79;85.75;93960.50;5080609;28;20442;-82
2023/08/30 03:29:55;;;;;;;13.73;8.20;;;;;;;22.88;85.45;93964.53;5078155;28;20441;-81
2023/08/30 03:32:23;;;;;;;9.20;7.40;;;;;;;22.95;84.09;93967.91;5077344;28;20451;-82
2023/08/30 03:34:50;;;;;;;15.23;8.90;;;;;;;22.89;84.01;93965.34;5024964;28;20428;-82
2023/08/30 03:37:17;;;;;;;10.10;8.83;;;;;;;22.82;83.97;93960.06;5076576;28;20444;-82
2023/08/30 03:39:44;;;;;;;11.40;8.23;;;;;;;22.77;84.25;93949.19;5077626;28;20442;-82
2023/08/30 03:42:11;;;;;;;10.80;9.00;;;;;;;22.71;85.05;93948.25;5075977;28;20481;-82
2023/08/30 03:44:40;;;;;;;11.60;8.60;;;;;;;22.63;83.05;93947.78;5075665;28;20441;-82
2023/08/30 03:47:07;;;;;;;11.20;9.30;;;;;;;22.43;83.77;93945.34;5075236;28;20449;-81
2023/08/30 03:49:34;;;;;;;12.17;8.00;;;;;;;22.17;84.59;93947.31;5077614;28;20442;-82
2023/08/30 03:52:01;;;;;;;8.63;7.67;;;;;;;22.02;86.97;93941.53;5025868;28;21011;-82
2023/08/30 03:54:27;;;;;;;11.73;8.30;;;;;;;22.04;87.61;93955.50;5039576;28;20446;-82
2023/08/30 03:56:54;;;;;;;20.57;8.43;;;;;;;22.13;87.64;93953.34;5058118;28;20510;-82
2023/08/30 03:59:22;;;;;;;10.00;8.30;;;;;;;22.24;87.38;93958.72;5057415;28;20501;-81
2023/08/30 04:01:50;;;;;;;9.53;8.03;;;;;;;22.19;86.10;93955.91;5056481;28;20539;-84
2023/08/30 04:04:17;;;;;;;8.70;7.70;;;;;;;22.16;84.03;93961.72;5056340;28;20826;-84
2023/08/30 04:06:44;;;;;;;8.20;7.43;;;;;;;22.10;84.02;93977.84;5055310;28;20438;-84
2023/08/30 04:09:11;;;;;;;14.23;8.30;;;;;;;22.00;86.66;93981.00;5054697;28;20455;-84
2023/08/30 04:11:38;;;;;;;11.97;8.17;;;;;;;21.90;85.21;93978.81;5019884;28;20449;-82
2023/08/30 04:14:05;;;;;;;13.53;7.97;;;;;;;21.83;85.22;93979.94;5055472;28;20446;-84
2023/08/30 04:16:31;;;;;;;8.33;7.47;;;;;;;21.85;86.66;93976.00;5019703;28;20930;-85
2023/08/30 04:18:59;;;;;;;17.03;8.67;;;;;;;21.99;89.12;93984.72;5054967;28;20830;-82
2023/08/30 04:21:26;;;;;;;10.20;7.97;;;;;;;22.46;85.57;93990.34;5054901;28;20450;-82
2023/08/30 04:23:53;;;;;;;7.90;6.87;;;;;;;23.22;82.60;93989.75;5055015;28;20488;-81
2023/08/30 04:26:20;;;;;;;8.00;7.20;;;;;;;23.64;80.88;93995.06;5054684;28;20466;-83
2023/08/30 04:28:46;;;;;;;9.67;7.50;;;;;;;23.91;77.78;94006.94;5054715;28;20466;-84
2023/08/30 04:31:13;;;;;;;8.93;7.90;;;;;;;24.04;77.34;94006.72;5060371;28;20475;-84
2023/08/30 04:33:40;;;;;;;10.73;8.00;;;;;;;24.27;77.39;94016.56;5067099;28;20490;-84
2023/08/30 04:36:08;;;;;;;7.47;6.77;;;;;;;24.49;77.16;94016.00;5075491;28;20440;-83
2023/08/30 04:38:35;;;;;;;8.70;6.23;;;;;;;24.67;74.68;94026.56;5073055;28;20441;-83
2023/08/30 04:41:02;;;;;;;10.30;7.40;;;;;;;24.79;72.84;94031.88;5074278;28;20444;-83
2023/08/30 04:43:29;;;;;;;12.73;7.60;;;;;;;24.85;73.00;94038.97;5073384;28;20535;-83
2023/08/30 04:45:56;;;;;;;10.17;8.20;;;;;;;24.94;72.60;94040.25;5073856;28;20445;-83
2023/08/30 04:48:24;;;;;;;9.97;6.80;;;;;;;25.07;71.69;94047.22;5073975;28;20866;-83
2023/08/30 04:50:59;;;;;;;8.17;7.37;;;;;;;25.12;71.78;94041.94;5073746;28;20817;-83
2023/08/30 04:53:27;;;;;;;8.50;6.40;;;;;;;25.12;71.39;94036.56;5074002;28;20442;-83
2023/08/30 04:55:54;;;;;;;7.37;6.27;;;;;;;25.02;72.02;94038.03;5073726;28;20946;-83
2023/08/30 04:58:21;;;;;;;10.07;7.27;;;;;;;24.81;71.82;94041.31;5073674;28;20460;-82
2023/08/30 05:00:48;;;;;;;7.10;6.40;;;;;;;24.56;72.21;94044.31;5073805;28;20452;-83
2023/08/30 05:03:14;;;;;;;16.90;8.40;;;;;;;24.49;72.89;94037.44;5073309;28;20488;-83
2023/08/30 05:05:45;;;;;;;8.30;7.33;;;;;;;24.39;73.99;94038.06;5073670;28;20459;-82
2023/08/30 05:08:12;;;;;;;13.80;7.50;;;;;;;24.24;75.20;94043.03;5039505;28;20452;-82
2023/08/30 05:10:42;;;;;;;12.27;9.27;;;;;;;24.02;75.67;94043.66;5073619;28;20456;-85
2023/08/30 05:13:10;;;;;;;16.23;8.00;;;;;;;23.86;76.05;94043.53;5071880;28;20440;-82
2023/08/30 05:15:37;;;;;;;10.80;7.77;;;;;;;23.84;77.49;94041.09;5062030;28;20445;-82
2023/08/30 05:18:04;;;;;;;10.93;7.63;;;;;;;23.99;79.82;94040.59;5060415;28;20444;-83
2023/08/30 05:20:31;;;;;;;10.20;9.20;;;;;;;24.17;79.05;94050.41;5063020;28;20433;-83
2023/08/30 05:22:58;;;;;;;12.93;8.20;;;;;;;24.23;78.87;94044.09;5018588;28;20484;-84
2023/08/30 05:25:24;;;;;;;10.33;7.30;;;;;;;24.34;79.41;94046.00;5017960;28;20445;-83
2023/08/30 05:27:53;;;;;;;10.73;7.83;;;;;;;24.39;81.02;94044.25;5053443;28;20440;-84
2023/08/30 05:30:19;;;;;;;7.97;7.20;;;;;;;24.48;81.86;94047.38;5053625;28;20448;-83
2023/08/30 05:32:46;;;;;;;10.57;7.80;;;;;;;24.50;79.14;94049.81;5053622;28;20943;-85
2023/08/30 05:35:13;;;;;;;13.70;10.57;;;;;;;24.47;79.42;94044.91;5061975;28;20460;-83
2023/08/30 05:37:40;;;;;;;15.07;11.27;;;;;;;24.51;80.17;94048.75;5074456;28;20445;-82
2023/08/30 05:40:08;;;;;;;15.17;10.47;;;;;;;24.51;81.82;94056.81;5066291;28;20455;-83
2023/08/30 05:42:35;;;;;;;16.83;9.40;;;;;;;24.65;82.25;94058.19;5062211;28;20440;-83
2023/08/30 05:45:03;;;;;;;17.73;9.60;;;;;;;24.82;79.02;94052.88;5072802;28;20808;-82
2023/08/30 05:47:30;;;;;;;11.53;9.43;;;;;;;25.02;77.23;94043.38;5070518;28;20967;-84
2023/08/30 05:49:58;;;;;;;18.37;9.77;;;;;;;25.23;77.36;94049.97;5061482;28;20445;-83
2023/08/30 05:52:25;;;;;;;12.07;10.13;;;;;;;25.53;75.24;94051.56;5084253;28;20985;-82
2023/08/30 05:54:52;;;;;;;12.77;10.03;;;;;;;25.77;76.02;94050.38;5083452;28;20484;-84
2023/08/30 05:57:22;;;;;;;19.37;10.10;;;;;;;26.25;75.08;94048.94;5073301;28;20441;-83
2023/08/30 05:59:48;;;;;;;10.73;9.50;;;;;;;26.71;71.47;94052.28;5080254;28;20466;-83
2023/08/30 06:02:17;;;;;;;10.33;8.33;;;;;;;26.97;67.83;94056.94;5092464;28;20444;-82
2023/08/30 06:04:43;;;;;;;13.30;7.83;;;;;;;27.41;66.28;94056.88;5090786;28;20490;-83
2023/08/30 06:07:10;;;;;;;13.60;8.77;;;;;;;27.74;66.52;94048.59;5082830;28;20528;-83
2023/08/30 06:09:37;;;;;;;12.10;7.73;;;;;;;28.05;62.04;94043.47;5091310;28;20847;-83
2023/08/30 06:12:05;;;;;;;16.57;8.20;;;;;;;28.33;62.33;94050.41;5093194;28;20523;-83
2023/08/30 06:14:31;;;;;;;10.40;8.07;;;;;;;27.91;59.72;94050.34;5093635;28;20446;-82
2023/08/30 06:16:58;;;;;;;15.20;7.30;;;;;;;28.11;62.79;94047.00;5093364;28;20439;-82
2023/08/30 06:19:26;;;;;;;12.80;8.93;;;;;;;28.30;62.05;94042.84;5041717;28;20440;-83
2023/08/30 06:21:53;;;;;;;13.50;8.50;;;;;;;28.35;60.34;94043.69;5093480;28;20432;-83
2023/08/30 06:24:20;;;;;;;9.03;7.73;;;;;;;28.35;59.33;94050.97;5040979;28;20484;-83
2023/08/30 06:26:47;;;;;;;12.50;8.60;;;;;;;28.07;59.42;94052.91;5093153;28;20479;-82
2023/08/30 06:29:14;;;;;;;10.83;8.37;;;;;;;27.99;61.22;94049.88;5092934;28;20444;-83
2023/08/30 06:31:42;;;;;;;9.30;8.37;;;;;;;27.86;60.33;94056.53;5092570;28;20436;-82
2023/08/30 06:34:09;;;;;;;12.97;7.67;;;;;;;27.93;60.91;94050.91;5092666;28;20455;-83
2023/08/30 06:36:37;;;;;;;19.83;7.30;;;;;;;27.55;57.50;94051.91;5092695;28;20447;-82
2023/08/30 06:39:04;;;;;;;8.60;6.60;;;;;;;27.89;58.82;94049.81;5092472;28;20446;-82
2023/08/30 06:41:31;;;;;;;11.93;6.90;;;;;;;28.41;61.10;94051.81;5040473;28;20833;-82
2023/08/30 06:43:58;;;;;;;8.97;7.20;;;;;;;28.78;57.58;94049.84;5092548;28;20480;-82
2023/08/30 06:46:24;;;;;;;8.00;6.37;;;;;;;29.24;58.06;94055.47;5092812;28;20534;-83
2023/08/30 06:48:51;;;;;;;6.73;6.13;;;;;;;29.58;54.77;94053.13;5093455;28;20440;-83
2023/08/30 06:51:18;;;;;;;9.23;5.97;;;;;;;29.86;54.91;94062.63;5093739;28;20444;-82
2023/08/30 06:53:47;;;;;;;13.83;6.83;;;;;;;29.95;52.34;94061.00;5096839;28;20454;-83
2023/08/30 06:56:14;;;;;;;10.20;6.93;;;;;;;30.10;50.76;94054.81;5096715;28;20448;-83
2023/08/30 06:58:40;;;;;;;8.97;6.43;;;;;;;30.11;50.97;94056.44;5096330;28;20964;-82
2023/08/30 07:01:07;;;;;;;8.67;6.47;;;;;;;29.99;51.47;94051.25;5096293;28;20439;-83
2023/08/30 07:03:34;;;;;;;9.00;6.77;;;;;;;29.99;49.28;94061.28;5095793;28;20483;-82
2023/08/30 07:06:01;;;;;;;21.23;6.40;;;;;;;29.92;50.72;94051.53;5095997;28;20443;-83
2023/08/30 07:08:28;;;;;;;9.83;6.47;;;;;;;29.94;51.35;94053.16;5095870;28;20462;-82
2023/08/30 07:10:57;;;;;;;9.30;6.30;;;;;;;29.96;50.29;94051.00;5096049;28;20443;-83
2023/08/30 07:13:24;;;;;;;7.93;5.80;;;;;;;30.08;51.63;94043.47;5096149;28;20448;-83
2023/08/30 07:15:51;;;;;;;8.63;5.60;;;;;;;30.41;50.78;94047.47;5096044;28;20440;-83
2023/08/30 07:18:17;;;;;;;6.63;5.57;;;;;;;30.59;51.72;94048.78;5096910;28;20431;-83
2023/08/30 07:20:44;;;;;;;10.30;6.63;;;;;;;30.83;50.37;94047.91;5105268;28;20440;-83
2023/08/30 07:23:11;;;;;;;9.27;6.47;;;;;;;31.07;50.80;94044.59;5066596;28;20935;-82
2023/08/30 07:25:38;;;;;;;9.23;6.20;;;;;;;31.11;48.20;94041.03;5046629;28;20474;-82
2023/08/30 07:28:07;;;;;;;6.80;6.13;;;;;;;31.09;47.88;94043.22;5097909;28;20443;-83
2023/08/30 07:30:34;;;;;;;11.83;6.27;;;;;;;31.12;47.64;94044.56;5096087;28;20436;-82
2023/08/30 07:33:03;;;;;;;8.00;6.20;;;;;;;31.13;46.10;94046.19;5095457;28;20489;-84
2023/08/30 07:35:30;;;;;;;7.73;6.30;;;;;;;30.95;47.99;94041.41;5095171;28;20444;-84
2023/08/30 07:37:57;;;;;;;9.33;6.53;;;;;;;30.88;48.00;94044.38;5095250;28;20443;-84
2023/08/30 07:40:26;;;;;;;7.27;5.90;;;;;;;30.94;48.01;94047.88;5095616;28;20439;-84
2023/08/30 07:42:52;;;;;;;6.13;5.53;;;;;;;30.97;48.43;94039.22;5095778;28;20449;-84
2023/08/30 07:45:21;;;;;;;7.07;6.03;;;;;;;31.06;46.22;94041.06;5095450;28;20486;-84
2023/08/30 07:47:47;;;;;;;8.60;5.47;;;;;;;31.21;47.96;94025.81;5095131;28;20439;-85
2023/08/30 07:50:14;;;;;;;8.50;5.90;;;;;;;31.22;46.72;94030.97;5095885;28;20455;-84
2023/08/30 07:52:41;;;;;;;6.10;4.90;;;;;;;31.15;46.25;94027.72;5096098;28;20478;-82
2023/08/30 07:55:09;;;;;;;5.40;4.90;;;;;;;30.87;43.89;94023.78;5043840;28;20784;-83
2023/08/30 07:57:36;;;;;;;6.30;5.07;;;;;;;30.67;43.18;94035.53;5095025;28;20513;-84
2023/08/30 08:00:03;;;;;;;6.40;5.73;;;;;;;30.44;43.80;94036.09;5042567;28;20428;-84
2023/08/30 08:02:31;;;;;;;8.40;6.20;;;;;;;30.37;44.51;94030.16;5094570;28;20436;-84
2023/08/30 08:04:58;;;;;;;5.13;4.60;;;;;;;29.80;45.08;94033.97;5095466;28;20844;-84
2023/08/30 08:07:25;;;;;;;6.43;4.73;;;;;;;29.67;48.79;94031.78;5095482;28;20455;-84
2023/08/30 08:09:51;;;;;;;11.93;5.90;;;;;;;29.84;49.13;94037.75;5095831;28;20487;-84
2023/08/30 08:12:18;;;;;;;6.73;4.90;;;;;;;30.02;45.83;94033.66;5095619;28;20436;-84
2023/08/30 08:14:45;;;;;;;7.00;5.83;;;;;;;29.84;50.31;94035.03;5095792;28;20447;-84
2023/08/30 08:17:12;;;;;;;8.83;6.30;;;;;;;29.78;50.15;94044.22;5094952;28;20435;-84
2023/08/30 08:19:42;;;;;;;10.97;7.37;;;;;;;29.29;49.36;94042.78;5095357;28;20447;-83
2023/08/30 08:22:09;;;;;;;14.67;8.33;;;;;;;28.88;50.76;94041.00;5095657;28;20896;-83
2023/08/30 08:24:36;;;;;;;12.60;6.90;;;;;;;28.80;53.34;94039.59;5095008;28;20513;-83
2023/08/30 08:27:05;;;;;;;12.50;8.27;;;;;;;28.68;53.21;94031.72;5095068;28;20811;-84
2023/08/30 08:29:32;;;;;;;14.33;8.20;;;;;;;28.74;52.55;94037.16;5096048;28;20456;-84
2023/08/30 08:31:59;;;;;;;13.20;8.47;;;;;;;29.05;52.58;94040.81;5095720;28;20444;-84
2023/08/30 08:34:25;;;;;;;13.63;8.97;;;;;;;29.20;51.48;94041.69;5095189;28;20446;-85
2023/08/30 08:36:54;;;;;;;13.27;10.00;;;;;;;29.17;52.50;94039.47;5094921;28;20972;-84
2023/08/30 08:39:20;;;;;;;15.73;8.10;;;;;;;29.16;51.32;94032.44;5094695;28;20447;-84
2023/08/30 08:41:48;;;;;;;8.43;7.53;;;;;;;29.42;50.09;94032.53;5094509;28;20447;-84
2023/08/30 08:44:15;;;;;;;11.27;5.90;;;;;;;29.69;48.38;94040.44;5093908;28;20509;-84
2023/08/30 08:46:42;;;;;;;12.40;6.23;;;;;;;29.59;47.94;94050.16;5094069;28;20436;-84
2023/08/30 08:49:13;;;;;;;14.33;7.17;;;;;;;29.35;47.22;94035.47;5093947;28;20455;-84
2023/08/30 08:51:41;;;;;;;10.30;6.20;;;;;;;29.40;48.28;94038.19;5094073;28;20479;-84
2023/08/30 08:54:10;;;;;;;13.90;6.20;;;;;;;29.21;48.11;94032.50;5093590;28;20497;-84
2023/08/30 08:56:38;;;;;;;11.40;5.40;;;;;;;28.96;48.58;94035.13;5093821;28;20464;-84
2023/08/30 08:59:06;;;;;;;7.17;6.10;;;;;;;28.65;49.26;94028.75;5093603;28;21000;-83
2023/08/30 09:01:35;;;;;;;9.83;6.70;;;;;;;28.31;50.75;94026.38;5093605;28;20440;-84
2023/08/30 09:04:06;;;;;;;8.87;6.10;;;;;;;28.32;50.52;94028.00;5093837;28;20488;-84
2023/08/30 09:06:33;;;;;;;9.23;6.77;;;;;;;28.34;50.57;94025.88;5094699;28;20479;-83
2023/08/30 09:08:59;;;;;;;12.70;8.07;;;;;;;28.57;52.26;94030.03;5093976;28;20447;-83
2023/08/30 09:11:27;;;;;;;22.87;6.60;;;;;;;28.77;48.03;94033.91;5094460;28;20443;-84
2023/08/30 09:13:54;;;;;;;12.57;6.63;;;;;;;28.93;47.75;94038.34;5093382;28;20451;-84
2023/08/30 09:16:21;;;;;;;11.80;6.23;;;;;;;28.81;47.32;94030.41;5042141;28;20938;-84
2023/08/30 09:18:58;;;;;;;7.90;5.80;;;;;;;28.91;49.86;94030.50;5094118;28;20436;-83
2023/08/30 09:21:25;;;;;;;11.00;5.93;;;;;;;28.77;49.96;94025.81;5093395;28;20832;-84
2023/08/30 09:23:58;;;;;;;5.70;5.03;;;;;;;28.51;50.41;94024.88;5093036;28;20436;-84
2023/08/30 09:26:28;;;;;;;7.87;5.60;;;;;;;28.25;50.20;94032.81;5093219;28;20447;-84
2023/08/30 09:28:55;;;;;;;8.13;5.47;;;;;;;28.01;48.20;94028.84;5093002;28;20455;-84
2023/08/30 09:31:22;;;;;;;9.53;5.80;;;;;;;27.85;50.55;94029.81;5093071;28;20451;-84
2023/08/30 09:33:49;;;;;;;23.73;6.93;;;;;;;27.83;48.39;94031.97;5093683;28;20542;-83
2023/08/30 09:36:16;;;;;;;6.47;5.27;;;;;;;27.75;49.10;94028.66;5093526;28;20451;-84
2023/08/30 09:38:49;;;;;;;10.20;5.97;;;;;;;27.65;48.37;94035.84;5093237;28;20463;-84
2023/08/30 09:41:17;;;;;;;8.13;6.10;;;;;;;27.55;49.03;94024.97;5093711;28;20505;-83
2023/08/30 09:43:47;;;;;;;10.10;4.93;;;;;;;27.47;49.15;94031.63;5093039;28;20439;-83
2023/08/30 09:46:14;;;;;;;6.13;5.33;;;;;;;27.54;49.64;94026.84;5093120;28;20528;-83
2023/08/30 09:48:41;;;;;;;9.03;5.57;;;;;;;27.63;50.23;94019.13;5093169;28;20941;-83
2023/08/30 09:51:10;;;;;;;10.13;5.53;;;;;;;27.87;51.10;94025.78;5092694;28;20454;-84
2023/08/30 09:53:43;;;;;;;10.93;5.80;;;;;;;28.16;49.91;94022.75;5092818;28;20440;-84
2023/08/30 09:56:14;;;;;;;12.73;5.97;;;;;;;28.30;46.10;94019.34;5092918;28;20498;-83
2023/08/30 09:58:42;;;;;;;6.17;5.07;;;;;;;28.34;47.48;94012.38;5092602;28;20451;-84
2023/08/30 10:01:10;;;;;;;10.43;5.53;;;;;;;28.47;47.60;94010.28;5092666;28;20939;-83
2023/08/30 10:03:37;;;;;;;6.07;4.93;;;;;;;28.51;47.80;94008.69;5092768;28;20471;-83
2023/08/30 10:06:05;;;;;;;8.50;6.30;;;;;;;28.54;47.88;94006.25;5092545;28;20494;-83
2023/08/30 10:08:36;;;;;;;8.87;6.00;;;;;;;28.61;47.71;94000.63;5092940;28;20500;-84
2023/08/30 10:11:03;;;;;;;7.00;4.93;;;;;;;28.87;48.37;94002.38;5092403;28;20944;-83
2023/08/30 10:13:31;;;;;;;9.30;6.47;;;;;;;29.10;47.87;94003.00;5092696;28;20447;-83
2023/08/30 10:16:04;;;;;;;6.00;5.40;;;;;;;29.36;47.69;93998.44;5092618;28;20448;-84
2023/08/30 10:18:36;;;;;;;8.40;6.00;;;;;;;29.53;46.28;93999.88;5092482;28;20447;-84
2023/08/30 10:21:08;;;;;;;7.40;5.10;;;;;;;29.69;45.19;94002.56;5092329;28;20482;-84
2023/08/30 10:23:36;;;;;;;7.17;6.47;;;;;;;29.73;45.47;93999.03;5056739;28;20440;-85
2023/08/30 10:26:04;;;;;;;6.30;5.53;;;;;;;29.73;49.28;93992.81;5058840;28;20475;-84
2023/08/30 10:28:32;;;;;;;7.10;6.40;;;;;;;29.63;46.33;94000.94;5096403;28;20444;-83
2023/08/30 10:30:59;;;;;;;7.83;5.87;;;;;;;29.62;45.55;93986.63;5044397;28;20447;-82
2023/08/30 10:33:26;;;;;;;6.70;5.63;;;;;;;29.39;45.39;93993.31;5061080;28;20450;-82
2023/08/30 10:35:55;;;;;;;7.60;5.97;;;;;;;29.33;45.31;93988.19;5097749;28;20487;-81
2023/08/30 10:38:27;;;;;;;11.83;6.20;;;;;;;29.07;47.25;93987.31;5097434;28;20489;-81
2023/08/30 10:40:54;;;;;;;7.73;6.27;;;;;;;29.12;46.42;93982.72;5097197;28;20806;-81
2023/08/30 10:43:30;;;;;;;8.23;5.77;;;;;;;29.29;46.20;93983.31;5096957;28;20436;-81
2023/08/30 10:46:03;;;;;;;8.00;5.83;;;;;;;29.36;45.46;93974.13;5096790;28;20522;-82
2023/08/30 10:48:40;;;;;;;11.50;5.67;;;;;;;29.23;45.27;93981.69;5097196;28;20478;-81
2023/08/30 10:51:22;;;;;;;7.83;5.60;;;;;;;29.25;45.07;93971.41;5096323;28;20937;-80
2023/08/30 10:53:59;;;;;;;8.40;6.57;;;;;;;29.08;46.52;93975.44;5097138;28;20479;-81
2023/08/30 10:56:30;;;;;;;7.03;5.60;;;;;;;29.14;46.65;93980.56;5097034;28;20949;-81
2023/08/30 10:58:57;;;;;;;10.23;6.13;;;;;;;29.33;47.77;93983.59;5097050;28;20452;-81
2023/08/30 11:01:24;;;;;;;10.43;5.93;;;;;;;29.31;46.65;93964.13;5097356;28;20440;-81
2023/08/30 11:03:52;;;;;;;15.80;6.40;;;;;;;29.24;45.92;93974.41;5097286;28;20435;-81
2023/08/30 11:06:21;;;;;;;8.97;6.30;;;;;;;29.17;46.63;93971.13;5097204;28;21013;-81
2023/08/30 11:08:49;;;;;;;6.83;6.13;;;;;;;29.23;45.69;93975.47;5098048;28;20952;-82
2023/08/30 11:11:16;;;;;;;10.30;5.97;;;;;;;29.03;45.09;93972.72;5105311;28;20496;-82
2023/08/30 11:13:43;;;;;;;8.63;6.57;;;;;;;28.88;47.19;93974.28;5051351;28;20513;-82
2023/08/30 11:16:09;;;;;;;7.23;6.30;;;;;;;28.80;45.83;93974.78;5097558;28;20432;-82
2023/08/30 11:18:41;;;;;;;8.63;6.17;;;;;;;28.78;46.93;93971.53;5097226;28;20448;-81
2023/08/30 11:21:09;;;;;;;6.93;6.13;;;;;;;28.76;47.00;93968.28;5096888;28;20794;-82
2023/08/30 11:23:37;;;;;;;7.50;6.63;;;;;;;28.72;46.13;93966.38;5096652;28;20801;-82
2023/08/30 11:26:04;;;;;;;9.67;6.13;;;;;;;28.37;47.10;93954.38;5043836;28;20492;-82
2023/08/30 11:28:31;;;;;;;9.30;7.13;;;;;;;28.20;47.17;93953.72;5096385;28;20455;-81
2023/08/30 11:30:58;;;;;;;10.60;6.30;;;;;;;28.40;49.12;93958.44;5096430;28;20444;-81